Time;durP1;ratioP1;P1;durP2;ratioP2;P2;SDS_P1;SDS_P2;PMS_P1;PMS_P2;Temp;Humidity;BMP_temperature;BMP_pressure;BME280_temperature;BME280_humidity;BME280_pressure;Samples;Min_cycle;Max_cycle;Signal;HPM_P1;HPM_P2
2021/03/02 00:00:04;;;;;;;30.23;12.90;;;;;;;1.32;79.40;101442.89;1754818;81;21328;-80
2021/03/02 00:03:09;;;;;;;18.07;11.78;;;;;;;1.34;79.28;101443.69;1771788;80;21315;-80
2021/03/02 00:06:15;;;;;;;26.00;14.30;;;;;;;1.35;79.12;101434.16;1771722;80;21279;-80
2021/03/02 00:09:21;;;;;;;28.02;14.43;;;;;;;1.35;79.06;101432.80;1771858;81;21165;-80
2021/03/02 00:12:26;;;;;;;21.17;11.68;;;;;;;1.31;79.08;101431.24;1771733;80;21335;-80
2021/03/02 00:15:33;;;;;;;20.32;10.18;;;;;;;1.25;79.12;101427.09;1771611;81;21311;-80
2021/03/02 00:18:52;;;;;;;19.17;11.10;;;;;;;1.19;79.26;101426.11;1755099;81;21841;-80
2021/03/02 00:21:56;;;;;;;19.12;10.32;;;;;;;1.16;79.50;101422.71;1771576;80;21201;-80
2021/03/02 00:25:04;;;;;;;25.95;10.32;;;;;;;1.14;79.50;101425.98;1771713;81;21307;-80
2021/03/02 00:28:12;;;;;;;15.10;9.43;;;;;;;1.15;79.56;101428.58;1771684;80;21335;-80
2021/03/02 00:31:18;;;;;;;19.37;9.40;;;;;;;1.15;79.42;101420.98;1734948;82;21179;-80
2021/03/02 00:34:24;;;;;;;15.90;9.33;;;;;;;1.14;79.26;101416.55;1771805;81;21264;-80
2021/03/02 00:37:30;;;;;;;15.00;8.58;;;;;;;1.10;79.24;101414.51;1771751;80;21307;-80
2021/03/02 00:40:34;;;;;;;15.98;8.63;;;;;;;1.08;79.29;101415.06;1771656;81;21276;-80
2021/03/02 00:43:41;;;;;;;12.23;8.38;;;;;;;1.10;79.43;101415.86;1771752;81;21272;-80
2021/03/02 00:46:47;;;;;;;14.50;8.58;;;;;;;1.13;79.34;101411.65;1771711;80;21334;-80
2021/03/02 00:49:52;;;;;;;14.45;9.20;;;;;;;1.12;79.20;101412.58;1771874;81;21725;-80
2021/03/02 00:52:58;;;;;;;19.40;9.70;;;;;;;1.14;79.03;101409.81;1771709;80;21335;-80
2021/03/02 00:56:04;;;;;;;16.40;8.90;;;;;;;1.14;78.77;101401.73;1771749;81;21149;-80
2021/03/02 00:59:10;;;;;;;13.98;9.10;;;;;;;1.12;78.76;101404.98;1731822;81;21177;-80
2021/03/02 01:02:09;;;;;;;16.23;8.43;;;;;;;1.12;78.72;101395.55;1735075;82;21211;-81
2021/03/02 01:05:14;;;;;;;15.40;9.05;;;;;;;1.10;78.71;101396.99;1771681;81;21267;-80
2021/03/02 01:08:20;;;;;;;11.55;7.15;;;;;;;1.06;78.71;101388.69;1734959;82;21301;-80
2021/03/02 01:11:27;;;;;;;13.38;6.58;;;;;;;1.05;78.79;101380.23;1771768;80;21268;-80
2021/03/02 01:14:33;;;;;;;12.20;7.75;;;;;;;1.01;78.67;101378.66;1734924;82;21314;-80
2021/03/02 01:17:39;;;;;;;17.57;9.00;;;;;;;0.93;78.76;101380.45;1771943;80;21192;-80
2021/03/02 01:20:44;;;;;;;14.20;8.43;;;;;;;0.90;79.04;101377.08;1771801;81;21294;-80
2021/03/02 01:23:49;;;;;;;17.15;9.35;;;;;;;0.88;79.06;101369.06;1773182;81;21307;-80
2021/03/02 01:26:53;;;;;;;17.05;9.03;;;;;;;0.85;78.92;101361.63;1777380;80;21323;-80
2021/03/02 01:29:59;;;;;;;13.58;8.28;;;;;;;0.76;78.91;101355.84;1777645;81;21298;-80
2021/03/02 01:33:05;;;;;;;14.93;8.65;;;;;;;0.68;79.01;101354.06;1777465;80;21196;-80
2021/03/02 01:36:11;;;;;;;13.35;8.25;;;;;;;0.63;79.23;101357.49;1777668;80;21924;-80
2021/03/02 01:39:18;;;;;;;14.40;8.53;;;;;;;0.60;79.41;101352.75;1777655;81;21295;-80
2021/03/02 01:42:22;;;;;;;15.28;8.70;;;;;;;0.54;79.53;101359.36;1777609;80;21841;-80
2021/03/02 01:45:28;;;;;;;13.00;8.25;;;;;;;0.49;79.72;101360.97;1777631;81;21184;-80
2021/03/02 01:48:35;;;;;;;11.50;8.03;;;;;;;0.47;79.79;101360.64;1777484;80;21330;-80
2021/03/02 01:51:40;;;;;;;14.13;8.95;;;;;;;0.40;79.93;101357.44;1777616;80;21876;-80
2021/03/02 01:54:46;;;;;;;20.23;8.13;;;;;;;0.35;80.05;101360.00;1777624;80;21852;-80
2021/03/02 01:57:50;;;;;;;11.50;7.97;;;;;;;0.28;80.32;101357.25;1755847;81;21334;-80
2021/03/02 02:00:56;;;;;;;12.78;8.45;;;;;;;0.21;80.61;101362.98;1777643;81;21192;-80
2021/03/02 02:04:27;;;;;;;15.50;8.73;;;;;;;0.17;80.82;101352.47;1777652;81;21192;-80
2021/03/02 02:07:44;;;;;;;14.05;7.80;;;;;;;0.12;81.06;101349.16;1777795;80;21302;-80
2021/03/02 02:11:02;;;;;;;13.30;7.83;;;;;;;0.09;81.23;101351.53;1737567;82;21163;-79
2021/03/02 02:14:32;;;;;;;11.08;7.67;;;;;;;0.05;81.39;101355.37;1737422;82;21285;-80
2021/03/02 02:18:17;;;;;;;15.32;7.83;;;;;;;0.00;81.57;101352.06;1738202;82;21966;-80
2021/03/02 02:21:41;;;;;;;16.42;8.95;;;;;;;-0.03;81.64;101349.53;1726722;82;21835;-80
2021/03/02 02:25:06;;;;;;;14.15;8.65;;;;;;;-0.08;81.74;101348.43;1676064;82;21492;-80
2021/03/02 02:28:12;;;;;;;13.85;8.30;;;;;;;-0.11;81.87;101350.41;1742981;82;21313;-79
2021/03/02 02:31:17;;;;;;;13.88;9.03;;;;;;;-0.14;81.91;101348.77;1742999;82;21566;-80
2021/03/02 02:34:24;;;;;;;14.85;9.38;;;;;;;-0.18;82.07;101345.84;1743067;82;21278;-80
2021/03/02 02:37:29;;;;;;;16.02;8.75;;;;;;;-0.20;82.20;101349.08;1742844;82;21737;-80
2021/03/02 02:40:34;;;;;;;10.85;7.80;;;;;;;-0.21;82.35;101339.28;1742880;82;21304;-80
2021/03/02 02:43:41;;;;;;;11.10;6.87;;;;;;;-0.22;82.42;101333.52;1742798;82;21285;-80
2021/03/02 02:46:46;;;;;;;12.13;8.00;;;;;;;-0.23;82.50;101338.51;1720540;82;21289;-80
2021/03/02 02:49:54;;;;;;;13.25;6.78;;;;;;;-0.27;82.61;101336.45;1742899;82;21835;-80
2021/03/02 02:52:59;;;;;;;11.33;7.28;;;;;;;-0.30;82.77;101338.42;1742882;82;21241;-79
2021/03/02 02:56:08;;;;;;;10.85;6.90;;;;;;;-0.32;82.93;101339.86;1742828;82;21170;-80
2021/03/02 02:59:25;;;;;;;15.53;8.90;;;;;;;-0.28;83.07;101336.06;1743147;82;21206;-80
2021/03/02 03:02:34;;;;;;;10.93;7.97;;;;;;;-0.21;82.96;101334.38;1742831;82;21174;-80
2021/03/02 03:05:39;;;;;;;9.18;6.83;;;;;;;-0.19;82.82;101340.53;1742809;82;21317;-79
2021/03/02 03:08:45;;;;;;;17.07;8.53;;;;;;;-0.19;82.63;101329.30;1742852;82;21159;-80
2021/03/02 03:11:54;;;;;;;12.78;8.48;;;;;;;-0.24;82.59;101334.53;1742922;82;21336;-80
2021/03/02 03:15:07;;;;;;;10.47;7.40;;;;;;;-0.26;82.72;101330.11;1742144;82;21281;-80
2021/03/02 03:18:17;;;;;;;9.90;7.97;;;;;;;-0.27;82.65;101331.08;1742696;82;21285;-80
2021/03/02 03:21:22;;;;;;;11.88;8.10;;;;;;;-0.32;82.69;101329.59;1743055;82;21317;-80
2021/03/02 03:24:28;;;;;;;10.25;7.42;;;;;;;-0.37;82.88;101320.42;1741893;82;21277;-80
2021/03/02 03:27:35;;;;;;;15.63;8.55;;;;;;;-0.37;83.07;101328.48;1748340;82;21309;-80
2021/03/02 03:30:42;;;;;;;13.38;8.73;;;;;;;-0.38;83.18;101321.34;1748484;82;21712;-80
2021/03/02 03:33:50;;;;;;;12.47;7.37;;;;;;;-0.39;83.25;101312.89;1748433;82;21312;-80
2021/03/02 03:36:55;;;;;;;17.92;10.18;;;;;;;-0.38;83.30;101308.38;1748414;82;21316;-79
2021/03/02 03:40:02;;;;;;;18.50;9.50;;;;;;;-0.39;83.32;101310.20;1698536;83;21311;-80
2021/03/02 03:43:06;;;;;;;15.43;10.20;;;;;;;-0.39;83.33;101301.28;1748394;82;22241;-80
2021/03/02 03:46:11;;;;;;;17.92;10.30;;;;;;;-0.39;83.29;101302.14;1748401;82;21302;-80
2021/03/02 03:49:16;;;;;;;14.78;9.43;;;;;;;-0.40;83.24;101306.27;1748499;82;21299;-80
2021/03/02 03:52:23;;;;;;;16.77;10.53;;;;;;;-0.41;83.01;101308.57;1748320;82;21710;-80
2021/03/02 03:55:29;;;;;;;15.03;10.10;;;;;;;-0.45;82.85;101307.86;1748434;82;21666;-80
2021/03/02 03:58:37;;;;;;;13.45;10.05;;;;;;;-0.48;82.67;101309.35;1748417;82;21294;-80
2021/03/02 04:01:42;;;;;;;17.77;11.70;;;;;;;-0.53;82.63;101308.73;1761597;80;21342;-79
2021/03/02 04:04:48;;;;;;;17.92;11.93;;;;;;;-0.57;82.55;101308.49;1739102;82;21247;-79
2021/03/02 04:07:53;;;;;;;19.82;11.60;;;;;;;-0.63;82.61;101312.86;1748330;80;21838;-79
2021/03/02 04:10:58;;;;;;;17.40;11.55;;;;;;;-0.61;82.76;101313.19;1748417;82;21880;-79
2021/03/02 04:14:06;;;;;;;19.30;12.65;;;;;;;-0.62;82.71;101311.90;1748257;82;21264;-79
2021/03/02 04:17:11;;;;;;;16.37;11.25;;;;;;;-0.65;82.78;101310.26;1746764;82;21318;-80
2021/03/02 04:20:17;;;;;;;17.55;11.97;;;;;;;-0.64;82.95;101312.47;1748367;82;21181;-80
2021/03/02 04:23:23;;;;;;;17.35;12.35;;;;;;;-0.62;83.06;101314.59;1746193;82;21268;-79
2021/03/02 04:26:28;;;;;;;20.50;12.78;;;;;;;-0.62;83.08;101323.99;1738857;82;21295;-79
2021/03/02 04:29:33;;;;;;;17.92;12.18;;;;;;;-0.60;83.16;101326.14;1771825;81;21866;-79
2021/03/02 04:32:40;;;;;;;17.12;11.93;;;;;;;-0.58;83.17;101326.92;1771713;79;21778;-79
2021/03/02 04:35:46;;;;;;;18.15;11.88;;;;;;;-0.55;83.18;101327.64;1771829;81;21271;-79
2021/03/02 04:38:50;;;;;;;14.98;9.83;;;;;;;-0.49;83.22;101325.09;1771821;81;21283;-79
2021/03/02 04:41:56;;;;;;;15.63;9.93;;;;;;;-0.45;83.09;101321.30;1771564;81;21336;-80
2021/03/02 04:45:01;;;;;;;17.70;10.15;;;;;;;-0.45;83.07;101312.37;1771668;79;21266;-79
2021/03/02 04:48:06;;;;;;;15.38;11.00;;;;;;;-0.40;83.22;101307.61;1777648;79;21177;-80
2021/03/02 04:51:13;;;;;;;13.30;9.63;;;;;;;-0.34;83.29;101316.69;1772018;79;21254;-79
2021/03/02 04:54:18;;;;;;;17.15;10.55;;;;;;;-0.30;83.28;101315.58;1783226;79;21295;-79
2021/03/02 04:57:24;;;;;;;14.65;10.25;;;;;;;-0.28;83.38;101315.03;1781955;79;21710;-79
2021/03/02 05:00:31;;;;;;;16.77;10.98;;;;;;;-0.21;83.46;101315.55;1784501;79;21848;-79
2021/03/02 05:03:37;;;;;;;15.90;11.10;;;;;;;-0.19;83.52;101311.81;1774386;79;21300;-78
2021/03/02 05:06:43;;;;;;;17.30;11.12;;;;;;;-0.10;83.65;101309.11;1777609;79;21157;-79
2021/03/02 05:09:49;;;;;;;14.13;9.78;;;;;;;-0.03;83.63;101306.48;1773652;79;21244;-79
2021/03/02 05:12:54;;;;;;;18.10;10.30;;;;;;;0.05;83.50;101308.73;1777616;79;21829;-79
2021/03/02 05:16:00;;;;;;;13.68;8.28;;;;;;;0.12;83.49;101307.46;1747581;81;21799;-80
2021/03/02 05:19:07;;;;;;;15.65;9.58;;;;;;;0.18;83.42;101302.59;1782803;79;21262;-79
2021/03/02 05:22:13;;;;;;;16.12;10.35;;;;;;;0.26;83.35;101307.56;1771850;79;21804;-80
2021/03/02 05:25:21;;;;;;;16.10;9.30;;;;;;;0.36;83.39;101302.04;1784866;79;21243;-80
2021/03/02 05:28:26;;;;;;;14.68;9.75;;;;;;;0.46;83.21;101306.42;1778620;79;21826;-80
2021/03/02 05:31:25;;;;;;;13.20;8.80;;;;;;;0.54;83.11;101299.27;1778208;79;21284;-80
2021/03/02 05:34:31;;;;;;;13.13;9.38;;;;;;;0.62;82.99;101296.53;1778980;79;21740;-80
2021/03/02 05:37:36;;;;;;;12.75;8.33;;;;;;;0.72;82.86;101296.38;1779762;79;21329;-80
2021/03/02 05:40:41;;;;;;;13.05;8.20;;;;;;;0.79;82.64;101287.93;1771962;79;21252;-80
2021/03/02 05:43:48;;;;;;;14.00;8.88;;;;;;;0.88;82.61;101284.70;1781948;79;21275;-80
2021/03/02 05:46:55;;;;;;;13.53;8.63;;;;;;;0.99;82.44;101280.91;1783570;79;21166;-80
2021/03/02 05:50:01;;;;;;;12.82;8.23;;;;;;;1.10;82.07;101292.38;1782878;79;21169;-80
2021/03/02 05:53:11;;;;;;;12.63;8.50;;;;;;;1.20;81.87;101289.03;1781298;79;21856;-80
2021/03/02 05:56:18;;;;;;;13.55;8.80;;;;;;;1.29;81.54;101279.53;1782384;79;21864;-81
2021/03/02 05:59:24;;;;;;;12.13;7.55;;;;;;;1.40;81.34;101285.60;1781762;79;21884;-81
2021/03/02 06:02:30;;;;;;;13.88;8.20;;;;;;;1.48;81.05;101287.36;1778513;79;21797;-81
2021/03/02 06:05:37;;;;;;;12.00;7.95;;;;;;;1.53;80.74;101282.55;1781391;79;21283;-81
2021/03/02 06:08:42;;;;;;;12.03;8.23;;;;;;;1.60;80.47;101277.63;1780602;79;21157;-81
2021/03/02 06:11:49;;;;;;;17.00;8.73;;;;;;;1.67;80.19;101263.67;1777425;79;21176;-80
2021/03/02 06:14:54;;;;;;;19.57;9.73;;;;;;;1.77;79.75;101264.83;1776126;79;21268;-80
2021/03/02 06:18:22;;;;;;;15.75;7.95;;;;;;;1.87;79.61;101265.11;1763324;79;21311;-81
2021/03/02 06:21:28;;;;;;;14.25;7.87;;;;;;;1.99;79.08;101263.48;1766019;79;21610;-81
2021/03/02 06:24:45;;;;;;;14.78;9.75;;;;;;;2.05;78.30;101257.67;1781918;79;21166;-80
2021/03/02 06:27:56;;;;;;;15.28;9.60;;;;;;;2.10;77.61;101259.59;1749666;79;21216;-81
2021/03/02 06:31:03;;;;;;;14.18;8.70;;;;;;;2.15;77.35;101253.41;1787441;79;21702;-81
2021/03/02 06:34:28;;;;;;;15.65;9.28;;;;;;;2.26;77.08;101254.95;1786209;79;21284;-81
2021/03/02 06:37:47;;;;;;;12.82;9.08;;;;;;;2.33;76.73;101255.89;1784020;79;21684;-81
2021/03/02 06:40:58;;;;;;;20.30;11.63;;;;;;;2.39;76.62;101244.68;1784900;78;21271;-81
2021/03/02 06:44:03;;;;;;;18.02;11.20;;;;;;;2.49;76.28;101243.99;1784693;78;21175;-81
2021/03/02 06:47:08;;;;;;;17.27;9.73;;;;;;;2.60;75.80;101242.41;1771110;79;21172;-81
2021/03/02 06:50:22;;;;;;;16.95;10.38;;;;;;;2.67;75.41;101241.02;1788054;78;21175;-80
2021/03/02 06:53:27;;;;;;;13.38;8.88;;;;;;;2.74;75.36;101233.75;1786121;79;21853;-80
2021/03/02 06:56:32;;;;;;;17.17;10.43;;;;;;;2.84;74.77;101226.37;1785281;79;21295;-80
2021/03/02 06:59:38;;;;;;;19.15;10.00;;;;;;;2.93;74.47;101223.05;1787023;78;21968;-80
2021/03/02 07:02:51;;;;;;;14.75;9.25;;;;;;;3.02;73.95;101219.22;1787632;78;21809;-79
2021/03/02 07:06:02;;;;;;;17.42;10.70;;;;;;;3.08;73.28;101219.28;1767835;78;21932;-80
2021/03/02 07:09:09;;;;;;;14.03;9.98;;;;;;;3.13;73.08;101219.83;1785956;78;21963;-80
2021/03/02 07:12:16;;;;;;;13.48;10.05;;;;;;;3.18;72.51;101214.95;1788095;78;21314;-85
2021/03/02 07:15:25;;;;;;;14.30;10.38;;;;;;;3.23;72.28;101215.50;1792519;78;21275;-79
2021/03/02 07:18:32;;;;;;;16.02;11.25;;;;;;;3.31;71.94;101209.56;1790066;78;21267;-80
2021/03/02 07:21:49;;;;;;;13.55;8.85;;;;;;;3.40;71.82;101204.86;1788870;78;21177;-79
2021/03/02 07:24:51;;;;;;;10.32;7.92;;;;;;;3.52;71.33;101198.56;1774802;79;21855;-79
2021/03/02 07:28:00;;;;;;;11.35;8.23;;;;;;;3.63;70.25;101192.41;1747450;78;21916;-79
2021/03/02 07:31:05;;;;;;;10.68;7.95;;;;;;;3.64;69.22;101194.13;1732922;81;22113;-78
2021/03/02 07:34:15;;;;;;;12.03;7.85;;;;;;;3.68;68.95;101188.88;1719392;82;21881;-79
2021/03/02 07:37:29;;;;;;;12.03;7.28;;;;;;;3.71;68.86;101191.84;1676352;83;21336;-80
2021/03/02 07:40:40;;;;;;;9.38;7.00;;;;;;;3.77;68.77;101180.09;1714219;81;21932;-78
2021/03/02 07:43:48;;;;;;;10.13;7.12;;;;;;;3.86;68.64;101174.52;1713854;81;21540;-80
2021/03/02 07:46:57;;;;;;;10.03;6.60;;;;;;;3.89;67.36;101175.61;1712892;81;21215;-79
2021/03/02 07:50:24;;;;;;;10.15;7.22;;;;;;;3.90;67.17;101175.13;1699878;83;21547;-79
2021/03/02 07:53:31;;;;;;;9.48;6.72;;;;;;;3.96;67.69;101180.11;1697265;83;22175;-79
2021/03/02 07:56:37;;;;;;;8.28;6.12;;;;;;;4.15;67.36;101176.42;1677860;83;21776;-80
2021/03/02 07:59:42;;;;;;;11.25;7.28;;;;;;;4.25;66.41;101177.45;1702394;83;21338;-81
2021/03/02 08:02:51;;;;;;;10.93;7.58;;;;;;;4.23;65.12;101169.91;1699585;83;21742;-82
2021/03/02 08:06:02;;;;;;;;;;;;;;;4.21;65.63;101171.89;1700656;83;22258;-83
2021/03/02 08:09:05;;;;;;;10.82;7.40;;;;;;;4.17;65.46;101164.97;1698935;83;20671;-81
2021/03/02 08:12:43;;;;;;;9.30;6.90;;;;;;;4.17;66.02;101168.17;1687566;83;22070;-83
2021/03/02 08:15:54;;;;;;;9.75;6.92;;;;;;;4.24;65.15;101172.16;1696768;83;21229;-80
2021/03/02 08:19:00;;;;;;;11.05;8.05;;;;;;;4.34;64.62;101160.52;1712593;81;21698;-80
2021/03/02 08:22:05;;;;;;;16.90;9.50;;;;;;;4.56;65.89;101160.22;1688727;83;21209;-78
2021/03/02 08:25:29;;;;;;;11.60;8.60;;;;;;;4.77;66.74;101157.73;1688630;83;21292;-78
2021/03/02 08:28:35;;;;;;;10.58;8.50;;;;;;;4.80;64.04;101160.22;1678478;82;21183;-78
2021/03/02 08:31:45;;;;;;;9.03;7.35;;;;;;;4.71;64.03;101152.30;1713188;82;21822;-79
2021/03/02 08:34:53;;;;;;;10.85;7.33;;;;;;;4.63;63.21;101153.37;1776430;79;21303;-80
2021/03/02 08:38:01;;;;;;;7.22;5.80;;;;;;;4.56;62.38;101149.39;1772506;79;21735;-82
2021/03/02 08:41:06;;;;;;;7.67;5.90;;;;;;;4.54;62.44;101146.80;1776238;79;21173;-80
2021/03/02 08:44:28;;;;;;;9.10;6.30;;;;;;;4.54;62.06;101145.94;1772697;79;21177;-81
2021/03/02 08:47:33;;;;;;;16.75;7.30;;;;;;;4.56;62.61;101134.48;1777396;79;21195;-81
2021/03/02 08:50:43;;;;;;;8.48;5.05;;;;;;;4.64;63.14;101134.77;1776485;79;21632;-81
2021/03/02 08:53:56;;;;;;;7.92;5.45;;;;;;;4.65;62.36;101128.36;1777426;79;21302;-80
2021/03/02 08:57:12;;;;;;;8.28;5.47;;;;;;;4.59;61.98;101132.91;1763590;79;21275;-80
2021/03/02 09:00:25;;;;;;;10.85;6.33;;;;;;;4.60;62.67;101127.85;1779367;79;21279;-80
2021/03/02 09:03:33;;;;;;;11.40;7.72;;;;;;;4.61;63.02;101118.73;1758457;79;21310;-79
2021/03/02 09:06:53;;;;;;;8.70;6.75;;;;;;;4.61;63.69;101120.09;1782410;79;21162;-79
2021/03/02 09:10:01;;;;;;;6.22;4.35;;;;;;;4.70;64.12;101122.09;1777933;79;21165;-81
2021/03/02 09:13:07;;;;;;;9.08;4.00;;;;;;;4.80;62.83;101106.86;1778500;79;21291;-79
2021/03/02 09:16:36;;;;;;;5.42;4.28;;;;;;;4.84;62.31;101097.98;1777270;79;21173;-80
2021/03/02 09:19:47;;;;;;;4.42;3.33;;;;;;;4.94;62.73;101100.83;1771510;79;21275;-79
2021/03/02 09:22:51;;;;;;;7.12;4.05;;;;;;;4.99;60.97;101096.80;1776281;79;21318;-80
2021/03/02 09:26:00;;;;;;;7.28;4.47;;;;;;;4.87;60.63;101095.89;1755491;79;21256;-80
2021/03/02 09:29:15;;;;;;;5.58;4.15;;;;;;;4.80;61.71;101098.73;1772540;79;21542;-80
2021/03/02 09:32:22;;;;;;;6.83;4.42;;;;;;;4.75;62.18;101096.88;1768425;79;21699;-80
2021/03/02 09:35:30;;;;;;;8.83;5.33;;;;;;;4.71;62.82;101092.67;1785119;79;21798;-81
2021/03/02 09:38:37;;;;;;;7.95;4.25;;;;;;;4.68;62.92;101087.48;1764345;79;21338;-80
2021/03/02 09:41:45;;;;;;;5.90;3.77;;;;;;;4.67;63.31;101080.34;1787750;79;21471;-80
2021/03/02 09:44:53;;;;;;;6.17;4.20;;;;;;;4.71;62.68;101075.06;1792003;79;21164;-80
2021/03/02 09:48:09;;;;;;;11.90;4.72;;;;;;;4.68;62.37;101074.42;1789540;79;21925;-81
2021/03/02 09:51:35;;;;;;;9.03;5.55;;;;;;;4.65;62.57;101071.45;1790853;79;21441;-81
2021/03/02 09:54:42;;;;;;;8.13;6.10;;;;;;;4.70;63.03;101066.53;1753884;80;21299;-80
2021/03/02 09:58:15;;;;;;;10.68;6.42;;;;;;;4.72;63.15;101053.74;1734435;82;21726;-78
2021/03/02 10:01:19;;;;;;;7.50;5.80;;;;;;;4.67;63.34;101050.53;1720446;82;21727;-80
2021/03/02 10:04:26;;;;;;;10.35;6.80;;;;;;;4.65;63.84;101048.42;1733578;81;21185;-80
2021/03/02 10:07:33;;;;;;;10.00;6.75;;;;;;;4.63;63.55;101049.05;1717871;82;21310;-78
2021/03/02 10:10:45;;;;;;;11.15;6.60;;;;;;;4.66;63.76;101044.75;1733116;81;21912;-79
2021/03/02 10:14:05;;;;;;;10.03;6.05;;;;;;;4.72;63.30;101044.75;1736359;81;21265;-81
2021/03/02 10:17:10;;;;;;;10.23;6.33;;;;;;;4.71;62.88;101028.98;1734971;81;21804;-81
2021/03/02 10:20:18;;;;;;;7.42;5.53;;;;;;;4.69;63.48;101035.00;1734352;81;21770;-82
2021/03/02 10:23:23;;;;;;;10.95;7.30;;;;;;;4.72;63.88;101029.35;1733151;81;21625;-80
2021/03/02 10:26:38;;;;;;;11.12;6.17;;;;;;;4.69;64.02;101030.94;1734683;81;21663;-81
2021/03/02 10:29:43;;;;;;;10.53;7.25;;;;;;;4.64;64.59;101020.95;1733689;81;21287;-82
2021/03/02 10:32:48;;;;;;;14.53;7.30;;;;;;;4.50;64.19;101019.33;1729474;81;21635;-83
2021/03/02 10:35:55;;;;;;;12.55;7.67;;;;;;;4.43;64.54;101017.23;1723949;82;21685;-82
2021/03/02 10:39:02;;;;;;;12.25;7.47;;;;;;;4.41;65.44;101004.28;1782861;79;21276;-83
2021/03/02 10:42:12;;;;;;;14.50;7.72;;;;;;;4.49;65.67;101005.42;1781639;79;21302;-82
2021/03/02 10:45:16;;;;;;;13.13;8.40;;;;;;;4.64;65.33;100995.21;1777238;79;21616;-82
2021/03/02 10:48:21;;;;;;;13.50;7.60;;;;;;;4.70;65.03;100996.56;1780205;79;21428;-83
2021/03/02 10:51:28;;;;;;;13.78;9.18;;;;;;;4.80;65.59;100985.39;1779787;79;21279;-83
2021/03/02 10:54:36;;;;;;;14.45;10.45;;;;;;;4.88;65.39;100979.69;1779118;79;21837;-81
2021/03/02 10:57:41;;;;;;;21.70;11.22;;;;;;;4.93;65.57;100977.11;1776864;79;21185;-82
2021/03/02 11:00:47;;;;;;;14.95;9.93;;;;;;;4.87;65.05;100969.84;1782613;79;21318;-79
2021/03/02 11:03:55;;;;;;;17.00;10.38;;;;;;;4.80;65.10;100963.20;1778119;79;21896;-78
2021/03/02 11:07:00;;;;;;;11.15;8.45;;;;;;;4.71;65.57;100970.72;1776715;79;21750;-79
2021/03/02 11:10:05;;;;;;;14.70;9.85;;;;;;;4.68;66.27;100965.53;1779108;79;21342;-81
2021/03/02 11:13:12;;;;;;;12.15;8.68;;;;;;;4.69;66.65;100963.19;1778808;79;22050;-80
2021/03/02 11:16:19;;;;;;;8.63;6.20;;;;;;;4.69;67.07;100954.20;1776762;79;21750;-77
2021/03/02 11:19:25;;;;;;;;;;;;;;;4.75;66.79;100947.81;1781254;79;21263;-80
2021/03/02 11:22:31;;;;;;;9.50;6.97;;;;;;;4.76;65.73;100940.54;1773478;79;20336;-81
2021/03/02 11:25:38;;;;;;;9.45;6.22;;;;;;;4.79;66.23;100938.92;1777613;79;21311;-81
2021/03/02 11:28:44;;;;;;;11.73;5.83;;;;;;;4.88;66.35;100928.19;1780930;79;21920;-81
2021/03/02 11:31:51;;;;;;;8.88;6.20;;;;;;;4.96;65.67;100920.80;1774024;79;21551;-80
2021/03/02 11:34:57;;;;;;;10.90;7.47;;;;;;;5.02;65.36;100913.50;1792113;79;21313;-80
2021/03/02 11:38:03;;;;;;;13.18;7.42;;;;;;;5.05;65.04;100904.27;1789083;79;21282;-80
2021/03/02 11:41:07;;;;;;;10.20;7.70;;;;;;;4.99;64.77;100891.23;1791116;79;21161;-80
2021/03/02 11:44:14;;;;;;;11.83;6.97;;;;;;;4.96;65.43;100884.69;1791717;79;22139;-80
2021/03/02 11:47:19;;;;;;;11.45;6.62;;;;;;;4.99;65.34;100888.52;1795357;79;21611;-80
2021/03/02 11:50:25;;;;;;;11.40;6.60;;;;;;;4.96;65.50;100875.20;1787313;79;21380;-80
2021/03/02 11:53:32;;;;;;;13.18;7.45;;;;;;;4.97;65.60;100867.44;1792778;79;21316;-78
2021/03/02 11:56:38;;;;;;;14.13;7.92;;;;;;;4.95;65.77;100851.30;1794369;79;21291;-80
2021/03/02 11:59:46;;;;;;;14.98;7.87;;;;;;;4.96;65.97;100857.59;1789671;79;21460;-84
2021/03/02 12:02:52;;;;;;;11.83;7.05;;;;;;;5.03;66.47;100847.94;1790060;79;21307;-81
2021/03/02 12:06:01;;;;;;;11.12;7.10;;;;;;;5.08;65.94;100841.17;1789722;79;22266;-79
2021/03/02 12:09:07;;;;;;;11.23;7.00;;;;;;;5.10;66.09;100835.11;1786903;79;21310;-78
2021/03/02 12:12:15;;;;;;;13.65;7.83;;;;;;;5.13;65.96;100828.08;1787102;79;21199;-78
2021/03/02 12:15:24;;;;;;;14.55;8.63;;;;;;;5.15;66.11;100826.59;1787937;79;21272;-79
2021/03/02 12:18:29;;;;;;;15.08;8.80;;;;;;;5.19;66.17;100817.20;1783895;79;21562;-80
2021/03/02 12:21:36;;;;;;;16.02;9.53;;;;;;;5.23;65.92;100821.39;1784995;79;21988;-82
2021/03/02 12:24:43;;;;;;;14.70;8.65;;;;;;;5.23;65.99;100820.03;1787439;79;22228;-80
2021/03/02 12:27:49;;;;;;;20.57;9.95;;;;;;;5.19;65.72;100821.27;1789714;79;21544;-80
2021/03/02 12:30:55;;;;;;;19.10;8.65;;;;;;;5.14;66.12;100812.67;1789305;79;21439;-79
2021/03/02 12:34:00;;;;;;;14.15;9.03;;;;;;;5.09;66.51;100810.84;1788579;79;21284;-80
2021/03/02 12:37:05;;;;;;;12.28;8.08;;;;;;;5.07;66.86;100802.81;1785380;78;21178;-78
2021/03/02 12:40:13;;;;;;;10.15;7.37;;;;;;;5.09;66.61;100798.64;1787016;78;21140;-78
2021/03/02 12:43:22;;;;;;;12.85;9.13;;;;;;;5.09;66.53;100787.79;1787593;78;21341;-83
2021/03/02 12:46:29;;;;;;;9.40;6.97;;;;;;;5.07;66.54;100791.97;1784680;78;21349;-82
2021/03/02 12:49:36;;;;;;;17.23;8.13;;;;;;;5.07;66.56;100782.97;1786117;78;21294;-84
2021/03/02 12:52:45;;;;;;;13.48;7.97;;;;;;;5.06;66.58;100773.13;1788192;78;21199;-82
2021/03/02 12:55:52;;;;;;;18.77;8.15;;;;;;;5.04;66.47;100777.83;1787890;78;21860;-83
2021/03/02 12:59:02;;;;;;;14.35;8.60;;;;;;;5.02;66.58;100774.38;1788697;79;21279;-81
2021/03/02 13:02:08;;;;;;;12.88;8.10;;;;;;;4.97;66.61;100775.26;1786973;79;21176;-83
2021/03/02 13:05:15;;;;;;;16.17;9.83;;;;;;;4.93;67.22;100755.67;1786569;79;21173;-83
2021/03/02 13:08:22;;;;;;;13.53;8.10;;;;;;;4.92;67.47;100753.09;1788013;78;21975;-83
2021/03/02 13:11:27;;;;;;;14.18;7.60;;;;;;;4.88;67.70;100748.42;1785928;78;21279;-82
2021/03/02 13:14:32;;;;;;;11.68;8.03;;;;;;;4.83;67.87;100754.23;1788130;78;21302;-80
2021/03/02 13:17:39;;;;;;;12.55;8.30;;;;;;;4.77;68.05;100753.39;1788855;79;21285;-79
2021/03/02 13:20:46;;;;;;;13.30;8.00;;;;;;;4.74;68.61;100761.77;1788270;78;21789;-79
2021/03/02 13:23:52;;;;;;;20.43;10.08;;;;;;;4.71;69.13;100752.56;1785921;78;21248;-79
2021/03/02 13:26:57;;;;;;;13.80;8.63;;;;;;;4.65;69.24;100736.80;1787546;79;21314;-79
2021/03/02 13:30:07;;;;;;;19.48;9.75;;;;;;;4.58;69.67;100739.17;1789908;79;21148;-80
2021/03/02 13:33:22;;;;;;;12.98;8.08;;;;;;;4.53;69.67;100730.56;1789058;79;21327;-80
2021/03/02 13:36:33;;;;;;;11.95;9.80;;;;;;;4.50;69.82;100734.01;1784253;79;21323;-77
2021/03/02 13:39:41;;;;;;;17.57;9.50;;;;;;;4.47;70.12;100731.08;1743703;81;21280;-78
2021/03/02 13:42:49;;;;;;;13.25;9.28;;;;;;;4.48;70.48;100727.38;1780864;79;21239;-77
2021/03/02 13:46:02;;;;;;;16.90;9.18;;;;;;;4.50;70.54;100721.33;1783431;79;21573;-77
2021/03/02 13:49:09;;;;;;;16.62;10.43;;;;;;;4.52;70.65;100712.59;1781036;79;21330;-78
2021/03/02 13:52:14;;;;;;;14.20;9.00;;;;;;;4.53;70.68;100706.67;1781678;79;21208;-78
2021/03/02 13:55:23;;;;;;;15.70;8.78;;;;;;;4.54;70.78;100707.03;1788409;79;21157;-78
2021/03/02 13:58:28;;;;;;;13.85;8.85;;;;;;;4.56;71.00;100696.45;1776040;79;21307;-79
2021/03/02 14:01:33;;;;;;;12.37;7.17;;;;;;;4.57;70.99;100690.53;1776873;79;21409;-78
2021/03/02 14:04:41;;;;;;;12.80;7.33;;;;;;;4.56;70.97;100691.50;1760360;79;21177;-79
2021/03/02 14:07:49;;;;;;;8.75;6.58;;;;;;;4.57;71.08;100682.41;1781743;79;21861;-78
2021/03/02 14:10:55;;;;;;;15.15;8.38;;;;;;;4.59;71.22;100672.28;1778719;79;21309;-77
2021/03/02 14:14:01;;;;;;;11.75;7.10;;;;;;;4.60;71.31;100663.16;1780360;79;21260;-77
2021/03/02 14:17:06;;;;;;;13.25;8.68;;;;;;;4.62;71.51;100649.01;1786420;79;21699;-78
2021/03/02 14:20:13;;;;;;;13.60;8.35;;;;;;;4.63;71.54;100627.69;1784644;79;21832;-79
2021/03/02 14:23:21;;;;;;;12.95;8.00;;;;;;;4.62;71.72;100605.66;1789620;79;21621;-79
2021/03/02 14:26:26;;;;;;;11.15;8.38;;;;;;;4.60;71.87;100576.46;1776961;79;21385;-79
2021/03/02 14:29:31;;;;;;;14.30;10.28;;;;;;;4.50;72.09;100534.91;1775262;79;21882;-80
2021/03/02 14:32:35;;;;;;;17.40;11.20;;;;;;;4.34;72.64;100538.94;1780101;79;21196;-81